sensor_id;sensor_type;location;lat;lon;timestamp;temperature;humidity
31038;DHT22;17702;47.590;7.666;2023-06-14T00:01:32;17.40;56.70
31038;DHT22;17702;47.590;7.666;2023-06-14T00:04:00;17.30;57.90
31038;DHT22;17702;47.590;7.666;2023-06-14T00:06:28;17.20;57.80
31038;DHT22;17702;47.590;7.666;2023-06-14T00:08:54;17.10;58.30
31038;DHT22;17702;47.590;7.666;2023-06-14T00:11:20;17.00;59.40
31038;DHT22;17702;47.590;7.666;2023-06-14T00:13:46;16.80;60.30
31038;DHT22;17702;47.590;7.666;2023-06-14T00:16:12;16.60;60.70
31038;DHT22;17702;47.590;7.666;2023-06-14T00:18:38;16.50;62.40
31038;DHT22;17702;47.590;7.666;2023-06-14T00:21:04;16.40;62.70
31038;DHT22;17702;47.590;7.666;2023-06-14T00:23:30;16.30;62.20
31038;DHT22;17702;47.590;7.666;2023-06-14T00:25:56;16.10;63.20
31038;DHT22;17702;47.590;7.666;2023-06-14T00:28:21;16.00;63.90
31038;DHT22;17702;47.590;7.666;2023-06-14T00:30:47;15.90;63.60
31038;DHT22;17702;47.590;7.666;2023-06-14T00:33:12;15.90;63.80
31038;DHT22;17702;47.590;7.666;2023-06-14T00:35:38;15.70;64.80
31038;DHT22;17702;47.590;7.666;2023-06-14T00:38:04;15.70;64.20
31038;DHT22;17702;47.590;7.666;2023-06-14T00:40:29;15.60;64.60
31038;DHT22;17702;47.590;7.666;2023-06-14T00:42:55;15.60;64.00
31038;DHT22;17702;47.590;7.666;2023-06-14T00:45:21;15.50;65.00
31038;DHT22;17702;47.590;7.666;2023-06-14T00:47:47;15.40;64.10
31038;DHT22;17702;47.590;7.666;2023-06-14T00:50:16;15.40;65.30
31038;DHT22;17702;47.590;7.666;2023-06-14T00:52:42;15.30;65.10
31038;DHT22;17702;47.590;7.666;2023-06-14T00:55:08;15.20;65.60
31038;DHT22;17702;47.590;7.666;2023-06-14T00:57:34;15.20;66.30
31038;DHT22;17702;47.590;7.666;2023-06-14T01:00:03;15.20;66.70
31038;DHT22;17702;47.590;7.666;2023-06-14T01:02:35;15.10;66.50
31038;DHT22;17702;47.590;7.666;2023-06-14T01:05:02;15.10;66.60
31038;DHT22;17702;47.590;7.666;2023-06-14T01:13:20;15.10;66.20
31038;DHT22;17702;47.590;7.666;2023-06-14T01:15:47;15.10;66.60
31038;DHT22;17702;47.590;7.666;2023-06-14T01:18:13;15.00;66.10
31038;DHT22;17702;47.590;7.666;2023-06-14T01:20:47;14.90;67.10
31038;DHT22;17702;47.590;7.666;2023-06-14T01:23:20;14.80;67.60
31038;DHT22;17702;47.590;7.666;2023-06-14T01:25:46;14.80;67.80
31038;DHT22;17702;47.590;7.666;2023-06-14T01:28:13;14.80;66.70
31038;DHT22;17702;47.590;7.666;2023-06-14T01:30:43;14.60;67.70
31038;DHT22;17702;47.590;7.666;2023-06-14T01:33:19;14.60;68.60
31038;DHT22;17702;47.590;7.666;2023-06-14T01:35:46;14.50;68.70
31038;DHT22;17702;47.590;7.666;2023-06-14T01:38:13;14.50;69.30
31038;DHT22;17702;47.590;7.666;2023-06-14T01:40:41;14.40;68.80
31038;DHT22;17702;47.590;7.666;2023-06-14T01:43:08;14.40;69.40
31038;DHT22;17702;47.590;7.666;2023-06-14T01:45:35;14.40;68.50
31038;DHT22;17702;47.590;7.666;2023-06-14T01:48:02;14.30;68.80
31038;DHT22;17702;47.590;7.666;2023-06-14T01:50:30;14.30;68.90
31038;DHT22;17702;47.590;7.666;2023-06-14T01:52:56;14.30;69.00
31038;DHT22;17702;47.590;7.666;2023-06-14T01:55:21;14.30;69.20
31038;DHT22;17702;47.590;7.666;2023-06-14T01:57:47;14.40;69.20
31038;DHT22;17702;47.590;7.666;2023-06-14T02:00:14;14.30;69.70
31038;DHT22;17702;47.590;7.666;2023-06-14T02:02:41;14.20;69.90
31038;DHT22;17702;47.590;7.666;2023-06-14T02:05:07;14.10;70.10
31038;DHT22;17702;47.590;7.666;2023-06-14T02:07:34;14.10;69.10
31038;DHT22;17702;47.590;7.666;2023-06-14T02:09:59;14.00;69.80
31038;DHT22;17702;47.590;7.666;2023-06-14T02:12:25;14.00;70.30
31038;DHT22;17702;47.590;7.666;2023-06-14T02:14:51;13.90;71.00
31038;DHT22;17702;47.590;7.666;2023-06-14T02:17:16;13.80;70.70
31038;DHT22;17702;47.590;7.666;2023-06-14T02:19:42;13.80;70.90
31038;DHT22;17702;47.590;7.666;2023-06-14T02:22:08;13.70;71.50
31038;DHT22;17702;47.590;7.666;2023-06-14T02:24:34;13.70;71.20
31038;DHT22;17702;47.590;7.666;2023-06-14T02:27:01;13.70;71.60
31038;DHT22;17702;47.590;7.666;2023-06-14T02:29:26;13.70;71.30
31038;DHT22;17702;47.590;7.666;2023-06-14T02:31:52;13.70;71.70
31038;DHT22;17702;47.590;7.666;2023-06-14T02:34:18;13.60;71.60
31038;DHT22;17702;47.590;7.666;2023-06-14T02:36:45;13.60;72.60
31038;DHT22;17702;47.590;7.666;2023-06-14T02:39:11;13.50;72.20
31038;DHT22;17702;47.590;7.666;2023-06-14T02:41:37;13.50;72.80
31038;DHT22;17702;47.590;7.666;2023-06-14T02:44:02;13.50;72.60
31038;DHT22;17702;47.590;7.666;2023-06-14T02:46:28;13.50;71.60
31038;DHT22;17702;47.590;7.666;2023-06-14T02:48:54;13.50;72.60
31038;DHT22;17702;47.590;7.666;2023-06-14T02:51:19;13.40;72.10
31038;DHT22;17702;47.590;7.666;2023-06-14T02:53:45;13.40;72.30
31038;DHT22;17702;47.590;7.666;2023-06-14T02:56:10;13.50;72.70
31038;DHT22;17702;47.590;7.666;2023-06-14T02:58:37;13.50;72.10
31038;DHT22;17702;47.590;7.666;2023-06-14T03:01:07;13.50;71.90
31038;DHT22;17702;47.590;7.666;2023-06-14T03:03:33;13.40;73.40
31038;DHT22;17702;47.590;7.666;2023-06-14T03:05:59;13.40;73.20
31038;DHT22;17702;47.590;7.666;2023-06-14T03:08:32;13.30;73.10
31038;DHT22;17702;47.590;7.666;2023-06-14T03:11:04;13.30;73.70
31038;DHT22;17702;47.590;7.666;2023-06-14T03:13:34;13.20;73.00
31038;DHT22;17702;47.590;7.666;2023-06-14T03:16:00;13.20;74.00
31038;DHT22;17702;47.590;7.666;2023-06-14T03:18:31;13.10;73.40
31038;DHT22;17702;47.590;7.666;2023-06-14T03:21:01;13.00;73.70
31038;DHT22;17702;47.590;7.666;2023-06-14T03:23:27;13.00;74.50
31038;DHT22;17702;47.590;7.666;2023-06-14T03:25:53;13.00;74.40
31038;DHT22;17702;47.590;7.666;2023-06-14T03:28:18;13.00;74.40
31038;DHT22;17702;47.590;7.666;2023-06-14T03:30:44;13.00;75.00
31038;DHT22;17702;47.590;7.666;2023-06-14T03:33:10;13.00;75.10
31038;DHT22;17702;47.590;7.666;2023-06-14T03:35:35;13.00;75.80
31038;DHT22;17702;47.590;7.666;2023-06-14T03:38:01;13.00;75.80
31038;DHT22;17702;47.590;7.666;2023-06-14T03:40:29;13.00;75.40
31038;DHT22;17702;47.590;7.666;2023-06-14T03:42:54;13.10;75.40
31038;DHT22;17702;47.590;7.666;2023-06-14T03:45:20;13.20;75.60
31038;DHT22;17702;47.590;7.666;2023-06-14T03:47:46;13.30;75.10
31038;DHT22;17702;47.590;7.666;2023-06-14T03:50:12;13.20;76.50
31038;DHT22;17702;47.590;7.666;2023-06-14T03:52:38;13.30;75.10
31038;DHT22;17702;47.590;7.666;2023-06-14T03:55:04;13.20;75.50
31038;DHT22;17702;47.590;7.666;2023-06-14T03:57:30;13.20;75.80
31038;DHT22;17702;47.590;7.666;2023-06-14T03:59:56;13.30;76.90
31038;DHT22;17702;47.590;7.666;2023-06-14T04:02:22;13.20;75.80
31038;DHT22;17702;47.590;7.666;2023-06-14T04:04:48;13.20;77.40
31038;DHT22;17702;47.590;7.666;2023-06-14T04:07:15;13.10;77.00
31038;DHT22;17702;47.590;7.666;2023-06-14T04:09:41;13.10;76.60
31038;DHT22;17702;47.590;7.666;2023-06-14T04:12:07;13.10;78.20
31038;DHT22;17702;47.590;7.666;2023-06-14T04:14:37;13.10;77.80
31038;DHT22;17702;47.590;7.666;2023-06-14T04:17:03;13.00;78.70
31038;DHT22;17702;47.590;7.666;2023-06-14T04:19:29;12.90;79.30
31038;DHT22;17702;47.590;7.666;2023-06-14T04:21:54;12.80;80.60
31038;DHT22;17702;47.590;7.666;2023-06-14T04:24:20;12.80;81.10
31038;DHT22;17702;47.590;7.666;2023-06-14T04:26:46;12.90;81.20
31038;DHT22;17702;47.590;7.666;2023-06-14T04:29:14;12.90;81.40
31038;DHT22;17702;47.590;7.666;2023-06-14T04:31:41;12.90;81.10
31038;DHT22;17702;47.590;7.666;2023-06-14T04:34:07;12.90;81.60
31038;DHT22;17702;47.590;7.666;2023-06-14T04:36:33;12.90;83.30
31038;DHT22;17702;47.590;7.666;2023-06-14T04:39:01;12.90;84.90
31038;DHT22;17702;47.590;7.666;2023-06-14T04:41:29;13.00;84.80
31038;DHT22;17702;47.590;7.666;2023-06-14T04:43:59;13.00;85.50
31038;DHT22;17702;47.590;7.666;2023-06-14T04:46:30;13.00;85.80
31038;DHT22;17702;47.590;7.666;2023-06-14T04:48:57;13.00;87.30
31038;DHT22;17702;47.590;7.666;2023-06-14T04:51:27;13.00;87.60
31038;DHT22;17702;47.590;7.666;2023-06-14T04:53:58;13.10;88.20
31038;DHT22;17702;47.590;7.666;2023-06-14T04:56:24;13.30;87.60
31038;DHT22;17702;47.590;7.666;2023-06-14T04:58:54;13.50;86.80
31038;DHT22;17702;47.590;7.666;2023-06-14T05:01:22;13.60;89.20
31038;DHT22;17702;47.590;7.666;2023-06-14T05:03:49;13.70;90.10
31038;DHT22;17702;47.590;7.666;2023-06-14T05:06:15;13.70;88.80
31038;DHT22;17702;47.590;7.666;2023-06-14T05:08:41;13.80;90.10
31038;DHT22;17702;47.590;7.666;2023-06-14T05:11:06;13.80;89.20
31038;DHT22;17702;47.590;7.666;2023-06-14T05:13:32;13.90;89.00
31038;DHT22;17702;47.590;7.666;2023-06-14T05:15:58;14.00;88.30
31038;DHT22;17702;47.590;7.666;2023-06-14T05:18:24;14.10;89.90
31038;DHT22;17702;47.590;7.666;2023-06-14T05:20:51;14.30;89.00
31038;DHT22;17702;47.590;7.666;2023-06-14T05:23:16;14.40;90.10
31038;DHT22;17702;47.590;7.666;2023-06-14T05:25:46;14.50;89.80
31038;DHT22;17702;47.590;7.666;2023-06-14T05:28:11;14.50;89.50
31038;DHT22;17702;47.590;7.666;2023-06-14T05:30:38;14.70;90.20
31038;DHT22;17702;47.590;7.666;2023-06-14T05:33:05;14.80;88.10
31038;DHT22;17702;47.590;7.666;2023-06-14T05:35:30;14.90;87.90
31038;DHT22;17702;47.590;7.666;2023-06-14T05:37:56;15.10;88.20
31038;DHT22;17702;47.590;7.666;2023-06-14T05:40:21;15.20;88.90
31038;DHT22;17702;47.590;7.666;2023-06-14T05:42:47;15.30;87.10
31038;DHT22;17702;47.590;7.666;2023-06-14T05:45:13;15.50;87.10
31038;DHT22;17702;47.590;7.666;2023-06-14T05:47:40;15.50;86.50
31038;DHT22;17702;47.590;7.666;2023-06-14T05:50:06;15.60;84.00
31038;DHT22;17702;47.590;7.666;2023-06-14T05:52:32;15.70;83.60
31038;DHT22;17702;47.590;7.666;2023-06-14T05:54:58;15.80;81.90
31038;DHT22;17702;47.590;7.666;2023-06-14T05:57:23;15.90;79.30
31038;DHT22;17702;47.590;7.666;2023-06-14T05:59:49;16.10;80.60
31038;DHT22;17702;47.590;7.666;2023-06-14T06:02:15;16.20;81.30
31038;DHT22;17702;47.590;7.666;2023-06-14T06:04:41;16.30;81.80
31038;DHT22;17702;47.590;7.666;2023-06-14T06:07:07;16.40;80.80
31038;DHT22;17702;47.590;7.666;2023-06-14T06:09:32;16.50;81.20
31038;DHT22;17702;47.590;7.666;2023-06-14T06:11:58;16.60;78.10
31038;DHT22;17702;47.590;7.666;2023-06-14T06:14:24;16.70;80.60
31038;DHT22;17702;47.590;7.666;2023-06-14T06:16:50;16.80;80.80
31038;DHT22;17702;47.590;7.666;2023-06-14T06:19:18;17.00;80.60
31038;DHT22;17702;47.590;7.666;2023-06-14T06:21:43;17.10;80.40
31038;DHT22;17702;47.590;7.666;2023-06-14T06:24:09;17.20;76.00
31038;DHT22;17702;47.590;7.666;2023-06-14T06:26:35;17.40;76.50
31038;DHT22;17702;47.590;7.666;2023-06-14T06:29:00;17.50;76.50
31038;DHT22;17702;47.590;7.666;2023-06-14T06:31:26;17.70;72.70
31038;DHT22;17702;47.590;7.666;2023-06-14T06:33:55;17.80;73.70
31038;DHT22;17702;47.590;7.666;2023-06-14T06:36:20;18.00;72.80
31038;DHT22;17702;47.590;7.666;2023-06-14T06:38:47;18.10;72.10
31038;DHT22;17702;47.590;7.666;2023-06-14T06:41:13;18.30;70.70
31038;DHT22;17702;47.590;7.666;2023-06-14T06:43:38;18.50;71.00
31038;DHT22;17702;47.590;7.666;2023-06-14T06:46:04;18.50;72.50
31038;DHT22;17702;47.590;7.666;2023-06-14T06:48:30;18.70;73.40
31038;DHT22;17702;47.590;7.666;2023-06-14T06:50:56;18.80;67.00
31038;DHT22;17702;47.590;7.666;2023-06-14T06:53:21;18.90;62.70
31038;DHT22;17702;47.590;7.666;2023-06-14T06:55:48;19.10;59.00
31038;DHT22;17702;47.590;7.666;2023-06-14T06:58:14;19.30;59.50
31038;DHT22;17702;47.590;7.666;2023-06-14T07:00:39;19.40;58.30
31038;DHT22;17702;47.590;7.666;2023-06-14T07:03:05;19.60;59.80
31038;DHT22;17702;47.590;7.666;2023-06-14T07:05:30;19.70;57.70
31038;DHT22;17702;47.590;7.666;2023-06-14T07:07:57;19.90;57.90
31038;DHT22;17702;47.590;7.666;2023-06-14T07:10:23;20.00;60.30
31038;DHT22;17702;47.590;7.666;2023-06-14T07:12:50;20.10;57.20
31038;DHT22;17702;47.590;7.666;2023-06-14T07:15:16;20.10;57.30
31038;DHT22;17702;47.590;7.666;2023-06-14T07:17:41;20.30;58.00
31038;DHT22;17702;47.590;7.666;2023-06-14T07:20:08;20.40;57.60
31038;DHT22;17702;47.590;7.666;2023-06-14T07:22:39;20.60;55.60
31038;DHT22;17702;47.590;7.666;2023-06-14T07:25:10;20.70;52.70
31038;DHT22;17702;47.590;7.666;2023-06-14T07:27:40;20.80;54.50
31038;DHT22;17702;47.590;7.666;2023-06-14T07:30:06;20.90;52.90
31038;DHT22;17702;47.590;7.666;2023-06-14T07:32:32;21.00;51.90
31038;DHT22;17702;47.590;7.666;2023-06-14T07:34:58;21.00;51.70
31038;DHT22;17702;47.590;7.666;2023-06-14T07:37:23;21.20;52.30
31038;DHT22;17702;47.590;7.666;2023-06-14T07:39:49;21.40;50.70
31038;DHT22;17702;47.590;7.666;2023-06-14T07:42:14;21.40;50.00
31038;DHT22;17702;47.590;7.666;2023-06-14T07:44:40;21.50;50.70
31038;DHT22;17702;47.590;7.666;2023-06-14T07:47:06;21.60;50.50
31038;DHT22;17702;47.590;7.666;2023-06-14T07:49:31;21.80;50.90
31038;DHT22;17702;47.590;7.666;2023-06-14T07:51:57;22.00;49.90
31038;DHT22;17702;47.590;7.666;2023-06-14T07:54:24;22.20;50.80
31038;DHT22;17702;47.590;7.666;2023-06-14T07:56:52;22.30;48.80
31038;DHT22;17702;47.590;7.666;2023-06-14T07:59:18;22.50;48.60
31038;DHT22;17702;47.590;7.666;2023-06-14T08:01:43;22.60;49.20
31038;DHT22;17702;47.590;7.666;2023-06-14T08:04:13;22.80;48.70
31038;DHT22;17702;47.590;7.666;2023-06-14T08:06:38;22.90;49.20
31038;DHT22;17702;47.590;7.666;2023-06-14T08:09:04;23.10;49.20
31038;DHT22;17702;47.590;7.666;2023-06-14T08:11:31;23.20;46.80
31038;DHT22;17702;47.590;7.666;2023-06-14T08:13:56;23.30;49.80
31038;DHT22;17702;47.590;7.666;2023-06-14T08:16:22;23.40;47.50
31038;DHT22;17702;47.590;7.666;2023-06-14T08:18:48;23.50;46.50
31038;DHT22;17702;47.590;7.666;2023-06-14T08:21:14;23.50;48.20
31038;DHT22;17702;47.590;7.666;2023-06-14T08:23:40;23.70;48.50
31038;DHT22;17702;47.590;7.666;2023-06-14T08:26:08;23.80;48.50
31038;DHT22;17702;47.590;7.666;2023-06-14T08:28:34;24.00;48.00
31038;DHT22;17702;47.590;7.666;2023-06-14T08:30:59;24.20;46.80
31038;DHT22;17702;47.590;7.666;2023-06-14T08:33:25;24.30;47.70
31038;DHT22;17702;47.590;7.666;2023-06-14T08:35:51;24.40;46.10
31038;DHT22;17702;47.590;7.666;2023-06-14T08:38:16;24.50;46.50
31038;DHT22;17702;47.590;7.666;2023-06-14T08:40:42;24.70;47.30
31038;DHT22;17702;47.590;7.666;2023-06-14T08:43:08;24.80;47.10
31038;DHT22;17702;47.590;7.666;2023-06-14T08:45:34;25.00;46.30
31038;DHT22;17702;47.590;7.666;2023-06-14T08:47:59;25.10;46.60
31038;DHT22;17702;47.590;7.666;2023-06-14T08:50:26;25.20;47.10
31038;DHT22;17702;47.590;7.666;2023-06-14T08:52:57;25.40;46.10
31038;DHT22;17702;47.590;7.666;2023-06-14T08:55:27;25.50;45.80
31038;DHT22;17702;47.590;7.666;2023-06-14T08:57:57;25.60;45.50
31038;DHT22;17702;47.590;7.666;2023-06-14T09:00:24;25.70;43.10
31038;DHT22;17702;47.590;7.666;2023-06-14T09:02:51;25.60;42.10
31038;DHT22;17702;47.590;7.666;2023-06-14T09:05:24;25.60;41.90
31038;DHT22;17702;47.590;7.666;2023-06-14T09:07:50;25.60;45.50
31038;DHT22;17702;47.590;7.666;2023-06-14T09:10:16;25.70;44.50
31038;DHT22;17702;47.590;7.666;2023-06-14T09:12:43;25.80;43.70
31038;DHT22;17702;47.590;7.666;2023-06-14T09:15:09;26.00;43.70
31038;DHT22;17702;47.590;7.666;2023-06-14T09:17:36;26.00;43.10
31038;DHT22;17702;47.590;7.666;2023-06-14T09:20:03;26.10;42.70
31038;DHT22;17702;47.590;7.666;2023-06-14T09:22:32;26.10;44.40
31038;DHT22;17702;47.590;7.666;2023-06-14T09:24:58;26.20;43.00
31038;DHT22;17702;47.590;7.666;2023-06-14T09:27:26;26.20;41.80
31038;DHT22;17702;47.590;7.666;2023-06-14T09:29:52;26.10;43.30
31038;DHT22;17702;47.590;7.666;2023-06-14T09:32:18;26.20;44.20
31038;DHT22;17702;47.590;7.666;2023-06-14T09:34:46;26.30;43.70
31038;DHT22;17702;47.590;7.666;2023-06-14T09:37:12;26.40;43.40
31038;DHT22;17702;47.590;7.666;2023-06-14T09:40:03;26.40;42.90
31038;DHT22;17702;47.590;7.666;2023-06-14T09:42:30;26.50;43.10
31038;DHT22;17702;47.590;7.666;2023-06-14T09:44:56;26.70;43.90
31038;DHT22;17702;47.590;7.666;2023-06-14T09:47:23;26.90;42.70
31038;DHT22;17702;47.590;7.666;2023-06-14T09:49:50;27.00;42.10
31038;DHT22;17702;47.590;7.666;2023-06-14T09:52:17;27.10;42.70
31038;DHT22;17702;47.590;7.666;2023-06-14T09:54:44;27.10;41.70
31038;DHT22;17702;47.590;7.666;2023-06-14T09:57:21;27.30;43.60
31038;DHT22;17702;47.590;7.666;2023-06-14T09:59:48;27.50;43.80
31038;DHT22;17702;47.590;7.666;2023-06-14T10:02:35;27.60;43.20
31038;DHT22;17702;47.590;7.666;2023-06-14T10:05:07;27.60;41.40
31038;DHT22;17702;47.590;7.666;2023-06-14T10:07:48;27.70;42.90
31038;DHT22;17702;47.590;7.666;2023-06-14T10:10:14;27.80;43.10
31038;DHT22;17702;47.590;7.666;2023-06-14T10:12:40;28.00;43.70
31038;DHT22;17702;47.590;7.666;2023-06-14T10:15:08;28.20;43.80
31038;DHT22;17702;47.590;7.666;2023-06-14T10:17:38;28.30;40.70
31038;DHT22;17702;47.590;7.666;2023-06-14T10:20:19;28.40;40.20
31038;DHT22;17702;47.590;7.666;2023-06-14T10:22:54;28.50;40.70
31038;DHT22;17702;47.590;7.666;2023-06-14T10:25:30;28.60;39.30
31038;DHT22;17702;47.590;7.666;2023-06-14T10:28:14;28.60;40.00
31038;DHT22;17702;47.590;7.666;2023-06-14T10:33:29;28.70;42.60
31038;DHT22;17702;47.590;7.666;2023-06-14T10:36:31;28.80;42.40
31038;DHT22;17702;47.590;7.666;2023-06-14T10:39:01;29.10;42.10
31038;DHT22;17702;47.590;7.666;2023-06-14T10:41:29;29.20;39.50
31038;DHT22;17702;47.590;7.666;2023-06-14T10:46:55;29.40;39.80
31038;DHT22;17702;47.590;7.666;2023-06-14T10:49:40;29.50;36.40
31038;DHT22;17702;47.590;7.666;2023-06-14T10:52:10;29.40;36.40
31038;DHT22;17702;47.590;7.666;2023-06-14T10:57:30;29.00;35.80
31038;DHT22;17702;47.590;7.666;2023-06-14T11:00:00;28.90;37.70
31038;DHT22;17702;47.590;7.666;2023-06-14T11:05:04;29.00;38.20
31038;DHT22;17702;47.590;7.666;2023-06-14T11:10:41;29.30;39.70
31038;DHT22;17702;47.590;7.666;2023-06-14T11:13:08;29.30;37.90
31038;DHT22;17702;47.590;7.666;2023-06-14T11:15:38;29.40;37.60
31038;DHT22;17702;47.590;7.666;2023-06-14T11:18:07;29.50;38.80
31038;DHT22;17702;47.590;7.666;2023-06-14T11:20:35;29.50;37.60
31038;DHT22;17702;47.590;7.666;2023-06-14T11:23:02;29.60;38.90
31038;DHT22;17702;47.590;7.666;2023-06-14T11:25:28;29.70;38.00
31038;DHT22;17702;47.590;7.666;2023-06-14T11:27:54;29.80;37.70
31038;DHT22;17702;47.590;7.666;2023-06-14T11:30:21;29.90;38.70
31038;DHT22;17702;47.590;7.666;2023-06-14T11:32:50;30.00;36.40
31038;DHT22;17702;47.590;7.666;2023-06-14T11:35:18;29.90;34.80
31038;DHT22;17702;47.590;7.666;2023-06-14T11:37:44;29.80;35.20
31038;DHT22;17702;47.590;7.666;2023-06-14T11:40:11;29.70;38.40
31038;DHT22;17702;47.590;7.666;2023-06-14T11:42:38;29.80;37.20
31038;DHT22;17702;47.590;7.666;2023-06-14T11:45:07;29.80;38.00
31038;DHT22;17702;47.590;7.666;2023-06-14T11:47:34;29.80;37.30
31038;DHT22;17702;47.590;7.666;2023-06-14T11:50:01;29.80;37.70
31038;DHT22;17702;47.590;7.666;2023-06-14T11:52:27;29.90;37.10
31038;DHT22;17702;47.590;7.666;2023-06-14T11:54:53;30.00;37.00
31038;DHT22;17702;47.590;7.666;2023-06-14T11:57:19;30.10;36.60
31038;DHT22;17702;47.590;7.666;2023-06-14T11:59:45;30.10;35.30
31038;DHT22;17702;47.590;7.666;2023-06-14T12:02:15;30.00;36.20
31038;DHT22;17702;47.590;7.666;2023-06-14T12:04:41;30.00;36.50
31038;DHT22;17702;47.590;7.666;2023-06-14T12:07:11;29.90;36.20
31038;DHT22;17702;47.590;7.666;2023-06-14T12:12:23;29.90;37.40
31038;DHT22;17702;47.590;7.666;2023-06-14T12:14:51;30.00;36.10
31038;DHT22;17702;47.590;7.666;2023-06-14T12:17:17;30.00;35.70
31038;DHT22;17702;47.590;7.666;2023-06-14T12:19:43;30.10;36.20
31038;DHT22;17702;47.590;7.666;2023-06-14T12:22:11;30.10;35.60
31038;DHT22;17702;47.590;7.666;2023-06-14T12:24:37;30.10;36.50
31038;DHT22;17702;47.590;7.666;2023-06-14T12:27:03;30.00;37.30
31038;DHT22;17702;47.590;7.666;2023-06-14T12:29:30;30.00;36.10
31038;DHT22;17702;47.590;7.666;2023-06-14T12:31:56;30.00;37.10
31038;DHT22;17702;47.590;7.666;2023-06-14T12:34:26;30.00;37.00
31038;DHT22;17702;47.590;7.666;2023-06-14T12:36:55;30.00;36.40
31038;DHT22;17702;47.590;7.666;2023-06-14T12:39:21;30.00;34.50
31038;DHT22;17702;47.590;7.666;2023-06-14T12:41:47;29.90;35.30
31038;DHT22;17702;47.590;7.666;2023-06-14T12:44:14;29.80;36.10
31038;DHT22;17702;47.590;7.666;2023-06-14T12:46:41;29.80;36.60
31038;DHT22;17702;47.590;7.666;2023-06-14T12:49:11;29.90;35.50
31038;DHT22;17702;47.590;7.666;2023-06-14T12:51:38;29.70;34.80
31038;DHT22;17702;47.590;7.666;2023-06-14T12:54:04;29.60;35.10
31038;DHT22;17702;47.590;7.666;2023-06-14T12:56:30;29.60;36.00
31038;DHT22;17702;47.590;7.666;2023-06-14T12:58:55;29.60;35.20
31038;DHT22;17702;47.590;7.666;2023-06-14T13:01:21;29.60;36.20
31038;DHT22;17702;47.590;7.666;2023-06-14T13:03:47;29.70;38.40
31038;DHT22;17702;47.590;7.666;2023-06-14T13:06:13;29.70;37.30
31038;DHT22;17702;47.590;7.666;2023-06-14T13:08:38;29.80;37.90
31038;DHT22;17702;47.590;7.666;2023-06-14T13:11:04;29.80;36.40
31038;DHT22;17702;47.590;7.666;2023-06-14T13:13:29;29.80;37.00
31038;DHT22;17702;47.590;7.666;2023-06-14T13:15:55;29.80;36.60
31038;DHT22;17702;47.590;7.666;2023-06-14T13:18:21;29.80;36.80
31038;DHT22;17702;47.590;7.666;2023-06-14T13:20:47;29.90;38.10
31038;DHT22;17702;47.590;7.666;2023-06-14T13:23:12;30.00;36.80
31038;DHT22;17702;47.590;7.666;2023-06-14T13:25:40;30.00;35.20
31038;DHT22;17702;47.590;7.666;2023-06-14T13:28:06;30.00;35.10
31038;DHT22;17702;47.590;7.666;2023-06-14T13:30:32;29.80;36.70
31038;DHT22;17702;47.590;7.666;2023-06-14T13:32:59;29.80;36.70
31038;DHT22;17702;47.590;7.666;2023-06-14T13:35:25;29.80;35.80
31038;DHT22;17702;47.590;7.666;2023-06-14T13:37:51;29.70;35.00
31038;DHT22;17702;47.590;7.666;2023-06-14T13:40:16;29.70;36.50
31038;DHT22;17702;47.590;7.666;2023-06-14T13:42:42;29.80;36.40
31038;DHT22;17702;47.590;7.666;2023-06-14T13:45:09;29.80;36.40
31038;DHT22;17702;47.590;7.666;2023-06-14T13:47:35;29.80;36.80
31038;DHT22;17702;47.590;7.666;2023-06-14T13:50:01;29.80;36.10
31038;DHT22;17702;47.590;7.666;2023-06-14T13:52:27;29.80;36.70
31038;DHT22;17702;47.590;7.666;2023-06-14T13:54:53;29.80;37.50
31038;DHT22;17702;47.590;7.666;2023-06-14T13:57:20;29.80;37.10
31038;DHT22;17702;47.590;7.666;2023-06-14T13:59:45;29.80;36.20
31038;DHT22;17702;47.590;7.666;2023-06-14T14:02:11;29.80;37.10
31038;DHT22;17702;47.590;7.666;2023-06-14T14:04:37;29.80;37.90
31038;DHT22;17702;47.590;7.666;2023-06-14T14:07:04;29.70;36.80
31038;DHT22;17702;47.590;7.666;2023-06-14T14:09:30;29.60;36.30
31038;DHT22;17702;47.590;7.666;2023-06-14T14:11:56;29.60;37.20
31038;DHT22;17702;47.590;7.666;2023-06-14T14:14:21;29.60;37.70
31038;DHT22;17702;47.590;7.666;2023-06-14T14:16:49;29.60;37.30
31038;DHT22;17702;47.590;7.666;2023-06-14T14:19:17;29.50;38.30
31038;DHT22;17702;47.590;7.666;2023-06-14T14:21:44;29.50;38.00
31038;DHT22;17702;47.590;7.666;2023-06-14T14:24:10;29.40;38.50
31038;DHT22;17702;47.590;7.666;2023-06-14T14:26:35;29.40;36.90
31038;DHT22;17702;47.590;7.666;2023-06-14T14:29:01;29.40;38.40
31038;DHT22;17702;47.590;7.666;2023-06-14T14:31:28;29.30;38.80
31038;DHT22;17702;47.590;7.666;2023-06-14T14:33:53;29.20;37.60
31038;DHT22;17702;47.590;7.666;2023-06-14T14:36:19;29.20;37.20
31038;DHT22;17702;47.590;7.666;2023-06-14T14:38:45;29.20;38.80
31038;DHT22;17702;47.590;7.666;2023-06-14T14:41:10;29.20;38.20
31038;DHT22;17702;47.590;7.666;2023-06-14T14:43:37;29.20;39.20
31038;DHT22;17702;47.590;7.666;2023-06-14T14:46:02;29.10;36.70
31038;DHT22;17702;47.590;7.666;2023-06-14T14:48:28;29.10;37.30
31038;DHT22;17702;47.590;7.666;2023-06-14T14:50:53;29.10;38.00
31038;DHT22;17702;47.590;7.666;2023-06-14T14:53:19;29.00;37.10
31038;DHT22;17702;47.590;7.666;2023-06-14T14:55:45;28.90;38.30
31038;DHT22;17702;47.590;7.666;2023-06-14T14:58:12;28.80;38.80
31038;DHT22;17702;47.590;7.666;2023-06-14T15:00:38;28.80;38.50
31038;DHT22;17702;47.590;7.666;2023-06-14T15:03:03;28.80;39.00
31038;DHT22;17702;47.590;7.666;2023-06-14T15:05:29;28.80;37.80
31038;DHT22;17702;47.590;7.666;2023-06-14T15:07:54;28.70;39.00
31038;DHT22;17702;47.590;7.666;2023-06-14T15:10:20;28.70;38.10
31038;DHT22;17702;47.590;7.666;2023-06-14T15:12:45;28.60;39.10
31038;DHT22;17702;47.590;7.666;2023-06-14T15:15:11;28.60;40.00
31038;DHT22;17702;47.590;7.666;2023-06-14T15:17:37;28.50;39.00
31038;DHT22;17702;47.590;7.666;2023-06-14T15:20:02;28.50;39.00
31038;DHT22;17702;47.590;7.666;2023-06-14T15:22:28;28.40;39.90
31038;DHT22;17702;47.590;7.666;2023-06-14T15:24:54;28.40;39.20
31038;DHT22;17702;47.590;7.666;2023-06-14T15:27:19;28.30;39.00
31038;DHT22;17702;47.590;7.666;2023-06-14T15:29:45;28.30;39.30
31038;DHT22;17702;47.590;7.666;2023-06-14T15:32:11;28.20;39.70
31038;DHT22;17702;47.590;7.666;2023-06-14T15:34:37;28.20;40.00
31038;DHT22;17702;47.590;7.666;2023-06-14T15:37:08;28.10;39.10
31038;DHT22;17702;47.590;7.666;2023-06-14T15:39:34;28.10;38.50
31038;DHT22;17702;47.590;7.666;2023-06-14T15:42:00;28.10;39.40
31038;DHT22;17702;47.590;7.666;2023-06-14T15:44:25;28.00;40.10
31038;DHT22;17702;47.590;7.666;2023-06-14T15:46:51;27.80;40.70
31038;DHT22;17702;47.590;7.666;2023-06-14T15:49:17;27.80;40.20
31038;DHT22;17702;47.590;7.666;2023-06-14T15:51:44;27.70;39.80